Aérodrome :
LOGIN :

S'inscrire | Disclaimer

   EN    FR    IT 

 










Légende :    VFR   VFR Marginal   IFR   IFR Intensif   IFR Très Intensif
Visi : 
Plafond : 
>= 8 km
>= 3000ft
5 à 8 km
1000 à 3000 ft
1500m à 5 km
500 à 1000 ft
800 à 1500m
200 à 500 ft
< 800m
< 200 ft
Symboles :   Orages  Brouillard  Fortes neiges  Fortes précipitations  Vent > 20 kt
SIGMETs :   Divers  Orages  Givrage  Turbulence  Onde Orograph.  Cendres Volcan.







- Altitude de l'aérodrome : 404 ft
- Code IATA : WRO


EPWR - Wroclaw

DERNIER METAR :
  • 172230Z 35004KT 5000 BR FEW027 BKN043 01/M00 Q1024

METARs EXPIRÉS :
  • 172200Z 35005KT 6000 BKN033 01/M00 Q1024
  • 172130Z 35003KT 6000 BKN030 OVC040 01/M00 Q1023
  • 172100Z 36003KT 7000 SCT030 OVC043 02/M00 Q1023
  • 172030Z 02004KT 350V060 8000 BKN043 02/M01 Q1023
  • 172000Z VRB02KT 9999 BKN043 02/M02 Q1023

TAF TAF EPWR
Valide du 17 à 18h jusqu'au 18 à 18h UTC


171730Z 1718/1818 34005KT 9999 BKN040
PROB30 1719/1721 4500 BR BKN013 BKN040
TEMPO 1721/1809 4000 -SN BR BKN008 BKN030
PROB30
TEMPO 1722/1807 2800 BR BKN004 OVC020
PROB30
TEMPO 1809/1815 -SN BKN013
Pas de NOTAMs connus pour ce terrain.



MET'MAP, la Météo Aéronautique d'un coup d'oeil ! - Copyright ORBIFLY Décembre 2007 - Disclaimer

ORBIFLY MET'MAP TEAM :

Programmation & Développement : Alexandra Zaïnal
Conception & Développement : Baudouin d'Aumeries
Co-Programmation & Développement : Marc-Olivier Méhu
Soutien technique & logistique : Manuel Goepfert

Contact : metmap@orbifly.com




SOURCES & CREDITS :

   NOAA